Latest Coastal Weather Observations for Smithton

IDV60701

Issued at 10:52 am EST Sunday 28 May 2017 (issued every 10 minutes, with the page automatically refreshed every 10 minutes)

About coastal observations | Map of coastal stations | Coastal observations for VIC | Marine services | Other Formats
Station Details ID: 091292 Name: SMITHTON AERODROME Lat: -40.83 Lon: 145.08 Height: 7.5 m
Data from the previous 72 hours. | See also: Recent months at Smithton
Date/Time
EST
Temp
°C
Wind Pressure Rain since
9am
mm
Weather Cloud Vis
km
Sea
Height
m
Swell
Dir  Spd
kts
Gust
kts
hPa Trend Height
m
Period
s
Dir
28/10:30am 12.2 WSW 10 14 1003.1 - 0.2 - - - - - - -
28/10:00am 11.3 W 6 8 1002.9 - 0.2 - - - - - - -
28/09:30am 10.1 W 4 5 1002.8 - 0.2 - - - - - - -
28/09:00am 9.7 W 5 7 1002.7 - 12.6 - - - - - - -
28/08:30am 8.9 W 6 7 1002.6 - 12.6 - - - - - - -
28/08:00am 8.5 W 4 5 1002.6 - 12.6 - - - - - - -
28/07:30am 8.8 W 2 7 1002.2 - 12.6 - - - - - - -
28/07:00am 9.0 W 4 5 1002.1 - 12.4 - - - - - - -
28/06:30am 9.2 W 6 7 1001.7 - 12.4 - - - - - - -
28/06:00am 9.6 WNW 5 12 1001.9 - 12.4 - - - - - - -
28/05:30am 9.1 W 4 5 1001.7 - 12.0 - - - - - - -
28/05:00am 9.6 W 3 3 1001.7 - 12.0 - - - - - - -
28/04:30am 10.1 W 5 7 1001.8 - 12.0 - - - - - - -
28/04:00am 10.2 W 6 6 1001.8 - 11.4 - - - - - - -
28/03:30am 10.4 W 4 6 1001.9 - 11.4 - - - - - - -
28/03:00am 10.3 W 4 11 1002.1 - 11.0 - - - - - - -
28/02:30am 10.6 WNW 3 4 1002.4 - 8.2 - - - - - - -
28/02:00am 10.4 WNW 5 6 1002.6 - 8.0 - - - - - - -
28/01:30am 10.3 CALM 0 0 1002.9 - 8.0 - - - - - - -
28/01:00am 10.8 CALM 0 0 1002.8 - 7.8 - - - - - - -
28/12:30am 11.4 WNW 9 14 1004.0 - 7.6 - - - - - - -
28/12:00am 11.9 NNW 10 14 1004.4 - 5.8 - - - - - - -
 
Date/Time
EST
Temp
°C
Wind Pressure Rain since
9am
mm
Weather Cloud Vis
km
Sea
Height
m
Swell
Dir  Spd
kts
Gust
kts
hPa Trend Height
m
Period
s
Dir
27/11:30pm 11.7 N 9 13 1004.3 - 5.8 - - - - - - -
27/11:00pm 11.7 NNW 8 12 1004.5 - 5.8 - - - - - - -
27/10:30pm 11.3 NNW 6 8 1005.2 - 4.6 - - - - - - -
27/10:00pm 11.1 WNW 7 11 1005.4 - 3.0 - - - - - - -
27/09:30pm 11.8 W 12 17 1005.7 - 0.4 - - - - - - -
27/09:00pm 15.1 N 19 29 1005.8 - 0.4 - - - - - - -
27/08:57pm 15.1 N 18 29 1005.0 - 0.4 - - - - - - -
27/08:30pm 14.5 N 15 19 1005.4 - 0.4 - - - - - - -
27/08:00pm 14.2 N 14 21 1005.9 - 0.2 - - - - - - -
27/07:30pm 14.4 N 15 19 1006.4 - 0.0 - - - - - - -
27/07:16pm 14.6 N 17 27 1006.6 - 0.0 - - - - - - -
27/07:00pm 15.2 N 16 23 1006.6 - 0.0 - - - - - - -
27/06:30pm 15.4 N 15 19 1006.8 - 0.0 - - - - - - -
27/06:00pm 15.5 N 15 24 1007.0 - 0.0 - - - - - - -
27/05:30pm 15.5 N 15 24 1007.1 - 0.0 - - - - - - -
27/05:12pm 15.4 N 15 26 1007.1 - 0.0 - - - - - - -
27/05:00pm 15.3 N 15 20 1007.3 - 0.0 - - - - - - -
27/04:30pm 15.3 N 13 17 1007.7 - 0.0 - - - - - - -
27/04:00pm 15.3 N 12 17 1008.0 - 0.0 - - - - - - -
27/03:30pm 15.3 N 13 17 1008.1 - 0.0 - - - - - - -
27/03:00pm 15.8 N 12 19 1008.2 - 0.0 - - - - - - -
27/02:30pm 15.9 N 13 21 1008.3 - 0.0 - - - - - - -
27/02:00pm 16.1 N 17 23 1008.8 - 0.0 - - - - - - -
27/01:30pm 15.9 N 10 15 1009.3 - 0.0 - - - - - - -
27/01:00pm 15.7 N 14 19 1009.7 - 0.0 - - - - - - -
27/12:30pm 15.7 N 14 19 1010.2 - 0.0 - - - - - - -
27/12:00pm 15.8 N 14 18 1010.9 - 0.0 - - - - - - -
27/11:30am 16.0 N 14 18 1011.5 - 0.0 - - - - - - -
27/11:00am 15.7 N 11 15 1012.0 - 0.0 - - - - - - -
27/10:30am 15.8 N 13 19 1012.4 - 0.0 - - - - - - -
27/10:00am 15.9 N 12 17 1012.6 - 0.0 - - - - - - -
27/09:30am 15.5 N 12 19 1012.9 - 0.0 - - - - - - -
27/09:00am 15.2 N 12 19 1013.1 - 0.0 - - - - - - -
27/08:30am 14.7 N 12 17 1013.4 - 0.0 - - - - - - -
27/08:00am 14.5 N 11 16 1013.6 - 0.0 - - - - - - -
27/07:30am 14.3 N 10 13 1013.8 - 0.0 - - - - - - -
27/07:00am 14.2 N 10 15 1013.8 - 0.0 - - - - - - -
27/06:30am 13.5 N 9 12 1014.1 - 0.0 - - - - - - -
27/06:00am 13.3 N 8 11 1014.2 - 0.0 - - - - - - -
27/05:30am 13.4 N 8 12 1014.6 - 0.0 - - - - - - -
27/05:00am 13.2 N 9 13 1014.8 - 0.0 - - - - - - -
27/04:30am 12.4 N 7 10 1014.9 - 0.0 - - - - - - -
27/04:00am 13.3 N 10 14 1015.1 - 0.0 - - - - - - -
27/03:30am 13.0 N 10 13 1015.6 - 0.0 - - - - - - -
27/03:00am 13.4 N 11 15 1016.0 - 0.0 - - - - - - -
27/02:30am 13.2 N 9 12 1016.3 - 0.0 - - - - - - -
27/02:00am 13.4 N 13 19 1016.1 - 0.0 - - - - - - -
27/01:30am 13.3 N 11 16 1016.5 - 0.0 - - - - - - -
27/01:00am 13.0 WNW 10 13 1016.9 - 0.0 - - - - - - -
27/12:30am 12.6 WNW 8 11 1017.2 - 0.0 - - - - - - -
27/12:00am 12.2 WNW 7 12 1017.5 - 0.0 - - - - - - -
 
Date/Time
EST
Temp
°C
Wind Pressure Rain since
9am
mm
Weather Cloud Vis
km
Sea
Height
m
Swell
Dir  Spd
kts
Gust
kts
hPa Trend Height
m
Period
s
Dir
26/11:30pm 11.9 WNW 7 8 1017.7 - 0.0 - - - - - - -
26/11:00pm 12.2 WNW 7 9 1018.0 - 0.0 - - - - - - -
26/10:30pm 12.2 WNW 7 9 1018.3 - 0.0 - - - - - - -
26/10:00pm 12.0 WNW 7 9 1018.6 - 0.0 - - - - - - -
26/09:30pm 12.3 WNW 9 12 1018.9 - 0.0 - - - - - - -
26/09:00pm 12.0 WNW 8 11 1018.9 - 0.0 - - - - - - -
26/08:30pm 10.7 CALM 0 0 1018.9 - 0.0 - - - - - - -
26/08:00pm 11.0 WNW 5 6 1019.0 - 0.0 - - - - - - -
26/07:30pm 10.1 WNW 3 5 1019.0 - 0.0 - - - - - - -
26/07:00pm 9.4 WNW 1 3 1018.9 - 0.0 - - - - - - -
26/06:30pm 9.6 WNW 4 8 1019.0 - 0.0 - - - - - - -
26/06:00pm 9.4 WNW 3 5 1018.8 - 0.0 - - - - - - -
26/05:30pm 10.6 WNW 4 5 1018.7 - 0.0 - - - - - - -
26/05:00pm 11.2 WNW 4 5 1018.6 - 0.0 - - - - - - -
26/04:30pm 11.9 WNW 5 7 1018.6 - 0.0 - - - - - - -
26/04:00pm 12.9 W 5 7 1018.7 - 0.0 - - - - - - -
26/03:30pm 13.3 W 6 8 1018.8 - 0.0 - - - - - - -
26/03:00pm 13.6 W 7 9 1018.9 - 0.0 - - - - - - -
26/02:30pm 13.7 WNW 7 11 1019.0 - 0.0 - - - - - - -
26/02:00pm 13.8 W 9 14 1019.3 - 0.0 - - - - - - -
26/01:30pm 13.6 W 8 10 1019.5 - 0.0 - - - - - - -
26/01:00pm 13.4 W 5 7 1019.8 - 0.0 - - - - - - -
26/12:30pm 13.2 WSW 7 9 1020.1 - 0.0 - - - - - - -
26/12:00pm 13.2 SW 2 6 1020.5 - 0.0 - - - - - - -
26/11:30am 12.4 SW 5 7 1020.9 - 0.0 - - - - - - -
26/11:00am 12.2 W 5 8 1021.1 - 0.0 - - - - - - -
26/10:30am 11.3 CALM 0 0 1021.0 - 0.0 - - - - - - -
26/10:00am 10.2 CALM 0 0 1020.9 - 0.0 - - - - - - -
26/09:30am 9.0 W 1 4 1020.9 - 0.0 - - - - - - -
26/09:00am 7.9 SW 4 5 1020.9 - 4.2 - - - - - - -
26/08:30am 6.3 SW 2 3 1020.5 - 4.2 - - - - - - -
26/08:00am 5.5 SW 3 4 1020.3 - 4.2 - - - - - - -
26/07:30am 4.3 SW 3 4 1019.9 - 4.2 - - - - - - -
26/07:00am 3.5 SW 1 5 1019.6 - 4.2 - - - - - - -
26/06:30am 2.1 CALM 0 0 1019.2 - 4.2 - - - - - - -
26/06:00am 2.2 SW 5 6 1019.0 - 4.2 - - - - - - -
26/05:30am 3.7 SW 3 4 1018.6 - 4.2 - - - - - - -
26/05:00am 4.7 SW 3 4 1018.2 - 4.2 - - - - - - -
26/04:30am 4.8 SW 4 5 1017.8 - 4.2 - - - - - - -
26/04:00am 6.3 WSW 5 5 1017.7 - 4.2 - - - - - - -
26/03:30am 6.3 W 4 5 1017.5 - 4.2 - - - - - - -
26/03:00am 6.6 CALM 0 0 1017.4 - 4.2 - - - - - - -
26/02:30am 7.2 W 3 4 1017.1 - 4.2 - - - - - - -
26/02:00am 6.5 W 6 7 1016.9 - 4.2 - - - - - - -
26/01:30am 6.8 W 7 8 1016.7 - 4.0 - - - - - - -
26/01:00am 6.8 W 8 9 1016.6 - 4.0 - - - - - - -
26/12:30am 7.2 W 7 8 1016.6 - 4.0 - - - - - - -
26/12:00am 8.0 W 7 8 1016.6 - 4.0 - - - - - - -
 
Date/Time
EST
Temp
°C
Wind Pressure Rain since
9am
mm
Weather Cloud Vis
km
Sea
Height
m
Swell
Dir  Spd
kts
Gust
kts
hPa Trend Height
m
Period
s
Dir
25/11:30pm 9.1 W 9 11 1016.3 - 4.0 - - - - - - -
25/11:00pm 9.2 WSW 9 11 1016.1 - 4.0 - - - - - - -
25/10:30pm 9.6 WSW 10 11 1015.8 - 4.0 - - - - - - -
25/10:00pm 9.9 WSW 9 11 1015.6 - 4.0 - - - - - - -
25/09:30pm 10.3 WSW 9 11 1015.5 - 4.0 - - - - - - -
25/09:00pm 11.1 SW 8 10 1015.1 - 4.0 - - - - - - -
25/08:30pm 11.7 WSW 11 16 1015.0 - 4.0 - - - - - - -
25/08:00pm 11.0 WSW 7 8 1014.6 - 4.0 - - - - - - -
25/07:30pm 11.0 WSW 7 8 1014.6 - 4.0 - - - - - - -
25/07:00pm 11.3 WSW 8 9 1014.3 - 4.0 - - - - - - -
25/06:30pm 12.1 SW 11 14 1013.9 - 3.8 - - - - - - -
25/06:00pm 13.2 WSW 12 19 1013.4 - 3.8 - - - - - - -
25/05:30pm 13.6 W 12 18 1012.9 - 2.0 - - - - - - -
25/05:00pm 13.9 W 11 15 1012.8 - 2.0 - - - - - - -
25/04:30pm 13.7 WNW 13 17 1012.8 - 2.0 - - - - - - -
25/04:00pm 13.8 NW 15 21 1012.8 - 2.0 - - - - - - -
25/03:30pm 14.1 NW 13 19 1012.7 - 0.8 - - - - - - -
25/03:00pm 13.9 NW 12 17 1012.9 - 0.6 - - - - - - -
25/02:30pm 14.2 NW 13 21 1013.3 - 0.2 - - - - - - -
25/02:00pm 15.4 WNW 13 16 1013.4 - 0.2 - - - - - - -
25/01:30pm 15.0 WNW 14 17 1013.9 - 0.2 - - - - - - -
25/01:00pm 14.8 NW 17 25 1014.1 - 0.2 - - - - - - -
25/12:30pm 15.0 NW 15 21 1014.6 - 0.2 - - - - - - -
25/12:00pm 14.9 NW 13 17 1014.9 - 0.2 - - - - - - -
25/11:30am 15.2 NW 12 16 1015.4 - 0.2 - - - - - - -
25/11:00am 14.8 NW 12 16 1015.8 - 0.2 - - - - - - -

Other Formats:

Comma delimited format used in spreadsheet applications
http://www.bom.gov.au/fwo/IDV60701/IDV60701.94953.axf

JavaScript Object Notation format (JSON) in row-major order
http://www.bom.gov.au/fwo/IDV60701/IDV60701.94953.json